Ana Sayfa
METAR-TAF:

METAR-TAF

Havaalanları :

Wakefield Municipal Airport

Wakefield, Virginia, Amerika Birleşik Devletleri

Enlem: 36-58-53N, Boylam: 077-00-04W, yükseklik: 34 m

Güncel hava durumu gözlemi

Rapor saat 09:54 UTC de 18 dakika önce yapıldı.
Sakin rüzgar
Sıcaklık 9°C
Nem 93%
Basınç 1012 hPa
Görüş mesafesi: 1.6 km
hafif yağmur, Pus

METAR: KAKQ 250954Z AUTO 00000KT 1SM -RA BR VV003 09/08 A2988 RMK AO2 RAB0857 SLP120 P0002 T00890083

Saat: 05:12 (10:12 UTC)


TAF: eksik

4.000'den fazla havaalanı için hava durumu gözlemleri ve tahminleri (METAR ve TAF raporları).

Kullanılabilir istasyonlar harita üzerinde sarı ve kırmızı noktalarla gösterilir.

İstasyonun adını görmek için fareyi noktanın üzerinde gezdirin.

Sonrasında hava gözlem ve tahminlerini görmek için tıklayın.

Haritayı değiştirmek için: yaklaştırmak için siyah artı işaretli yeşil düğmeye ve uzaklaştırmak için de eksi işaretli düğmeye hızla tıklayın; bitişik haritalar için yeşil okları kullanın.


METAR-TAF: